Summit, Arkansas
Current Conditions -  °F | °C
As of 4:55 PM on Thursday 23 Oct 2014 (Local Time) from KFLP Reporting Station
Broken Clouds Broken Clouds  
Wind Chill: 63°   Ceiling: 5000
Heat Index: 63°   Visibility: 10mi
Dew Point: 46°   Wind: 7mph
Humidity: 55%   Direction: 80°E
Pressure: 30.14"   Gusts: NA
Location:  36.25°N, 92.69°W
Report Text: KFLP 232155Z AUTO 08006KT 10SM BKN050 17/08 A3014 RMK AO1
Loading
Personal Weather Stations






























Interactive Weather Map
Tropical Storm Tracking
New forecast layout! Learn more

10-Day Weather Forecast

Advertisements
Track Severe Weather on mobile